createdAt,value
2023-03-02T00:01:31.079Z,5.13
2023-03-02T00:04:01.324Z,6.00
2023-03-02T00:06:32.004Z,5.78
2023-03-02T00:09:03.330Z,5.60
2023-03-02T00:11:31.573Z,5.80
2023-03-02T00:13:58.209Z,5.95
2023-03-02T00:16:25.754Z,5.70
2023-03-02T00:18:52.351Z,5.55
2023-03-02T00:21:18.830Z,6.07
2023-03-02T00:23:45.386Z,5.88
2023-03-02T00:26:11.831Z,6.00
2023-03-02T00:28:38.865Z,6.78
2023-03-02T00:31:06.228Z,6.00
2023-03-02T00:33:33.518Z,5.45
2023-03-02T00:36:00.360Z,6.03
2023-03-02T00:38:30.428Z,5.93
2023-03-02T00:40:57.044Z,5.78
2023-03-02T00:43:27.896Z,6.45
2023-03-02T00:45:55.127Z,6.13
2023-03-02T00:48:22.207Z,5.80
2023-03-02T00:50:48.687Z,5.85
2023-03-02T00:53:15.316Z,5.72
2023-03-02T00:55:42.961Z,5.82
2023-03-02T00:58:09.472Z,5.75
2023-03-02T01:00:37.260Z,5.45
2023-03-02T01:03:06.327Z,5.57
2023-03-02T01:05:37.456Z,5.63
2023-03-02T01:08:04.507Z,5.88
2023-03-02T01:10:32.389Z,5.80
2023-03-02T01:12:58.854Z,5.70
2023-03-02T01:15:25.503Z,5.70
2023-03-02T01:17:52.416Z,6.05
2023-03-02T01:20:18.969Z,6.03
2023-03-02T01:22:45.544Z,5.22
2023-03-02T01:25:13.469Z,5.47
2023-03-02T01:27:39.961Z,5.43
2023-03-02T01:30:07.340Z,5.63
2023-03-02T01:32:33.847Z,4.55
2023-03-02T01:35:00.421Z,5.38
2023-03-02T01:37:26.964Z,4.50
2023-03-02T01:39:53.431Z,5.30
2023-03-02T01:42:19.964Z,5.00
2023-03-02T01:44:57.101Z,4.60
2023-03-02T01:47:38.670Z,5.45
2023-03-02T01:50:23.278Z,5.07
2023-03-02T01:52:55.159Z,5.15
2023-03-02T01:55:25.592Z,5.22
2023-03-02T01:57:55.102Z,5.47
2023-03-02T02:00:28.709Z,5.80
2023-03-02T02:03:08.936Z,5.53
2023-03-02T02:05:38.752Z,5.85
2023-03-02T02:08:05.858Z,6.20
2023-03-02T02:10:34.070Z,6.15
2023-03-02T02:13:01.215Z,6.22
2023-03-02T02:15:27.781Z,6.32
2023-03-02T02:17:55.607Z,6.55
2023-03-02T02:20:32.639Z,6.75
2023-03-02T02:23:08.212Z,6.78
2023-03-02T02:26:18.441Z,6.13
2023-03-02T02:28:57.576Z,6.40
2023-03-02T02:31:33.602Z,7.70
2023-03-02T02:34:11.008Z,7.93
2023-03-02T02:36:42.346Z,8.25
2023-03-02T02:39:19.085Z,8.25
2023-03-02T02:41:48.149Z,8.82
2023-03-02T02:44:18.206Z,9.10
2023-03-02T02:46:45.144Z,7.95
2023-03-02T02:49:28.427Z,9.02
2023-03-02T02:51:55.054Z,9.68
2023-03-02T02:54:23.103Z,11.43
2023-03-02T02:56:51.907Z,12.85
2023-03-02T02:59:29.015Z,12.32
2023-03-02T03:01:59.672Z,11.75
2023-03-02T03:04:30.381Z,12.98
2023-03-02T03:07:02.427Z,12.88
2023-03-02T03:09:30.063Z,14.50
2023-03-02T03:12:20.566Z,14.18
2023-03-02T03:14:47.989Z,14.55
2023-03-02T03:17:14.969Z,13.55
2023-03-02T03:19:48.731Z,13.60
2023-03-02T03:22:17.123Z,14.57
2023-03-02T03:24:46.270Z,13.27
2023-03-02T03:27:16.106Z,13.90
2023-03-02T03:29:48.060Z,14.18
2023-03-02T03:32:17.382Z,13.25
2023-03-02T03:34:44.893Z,13.45
2023-03-02T03:37:26.939Z,12.10
2023-03-02T03:39:53.463Z,12.82
2023-03-02T03:42:20.648Z,13.90
2023-03-02T03:44:47.538Z,13.35
2023-03-02T03:47:14.796Z,12.80
2023-03-02T03:49:41.524Z,13.20
2023-03-02T03:52:09.165Z,12.82
2023-03-02T03:54:35.760Z,13.75
2023-03-02T03:57:02.493Z,13.15
2023-03-02T03:59:29.008Z,12.55
2023-03-02T04:02:03.277Z,14.25
2023-03-02T04:04:41.577Z,13.70
2023-03-02T04:07:13.282Z,13.23
2023-03-02T04:09:40.110Z,13.30
2023-03-02T04:12:10.927Z,12.07
2023-03-02T04:14:39.516Z,12.70
2023-03-02T04:17:07.666Z,13.32
2023-03-02T04:19:38.037Z,13.48
2023-03-02T04:22:05.193Z,14.52
2023-03-02T04:24:33.849Z,15.82
2023-03-02T04:27:02.962Z,13.85
2023-03-02T04:29:32.367Z,14.25
2023-03-02T04:32:00.445Z,13.80
2023-03-02T04:34:28.526Z,13.07
2023-03-02T04:36:55.395Z,13.93
2023-03-02T04:39:22.516Z,13.27
2023-03-02T04:41:51.848Z,13.75
2023-03-02T04:44:19.198Z,13.98
2023-03-02T04:46:47.421Z,13.48
2023-03-02T04:49:16.496Z,13.48
2023-03-02T04:51:45.726Z,14.00
2023-03-02T04:54:21.785Z,13.57
2023-03-02T04:56:48.665Z,14.00
2023-03-02T04:59:20.276Z,13.50
2023-03-02T05:01:47.298Z,14.25
2023-03-02T05:04:14.596Z,12.75
2023-03-02T05:06:41.153Z,13.07
2023-03-02T05:09:07.873Z,12.50
2023-03-02T05:11:34.653Z,13.02
2023-03-02T05:14:04.020Z,12.85
2023-03-02T05:16:33.934Z,13.07
2023-03-02T05:19:02.376Z,12.48
2023-03-02T05:21:30.374Z,13.15
2023-03-02T05:24:01.185Z,12.75
2023-03-02T05:26:27.734Z,13.15
2023-03-02T05:28:54.226Z,14.30
2023-03-02T05:31:24.685Z,12.52
2023-03-02T05:33:51.159Z,12.68
2023-03-02T05:36:19.520Z,12.38
2023-03-02T05:38:47.348Z,12.68
2023-03-02T05:41:14.025Z,13.52
2023-03-02T05:43:40.702Z,11.25
2023-03-02T05:46:07.189Z,12.23
2023-03-02T05:48:33.736Z,13.05
2023-03-02T05:51:00.245Z,12.70
2023-03-02T05:53:26.694Z,12.57
2023-03-02T05:55:53.559Z,11.13
2023-03-02T05:58:20.484Z,11.38
2023-03-02T06:00:48.582Z,12.52
2023-03-02T06:03:16.522Z,11.20
2023-03-02T06:05:43.575Z,11.38
2023-03-02T06:08:10.271Z,11.80
2023-03-02T06:10:36.966Z,12.32
2023-03-02T06:13:03.856Z,12.07
2023-03-02T06:15:30.443Z,12.23
2023-03-02T06:17:57.893Z,12.30
2023-03-02T06:20:24.624Z,11.35
2023-03-02T06:22:51.107Z,12.27
2023-03-02T06:25:21.354Z,13.65
2023-03-02T06:27:51.465Z,13.70
2023-03-02T06:30:20.832Z,13.05
2023-03-02T06:32:47.570Z,12.70
2023-03-02T06:35:14.568Z,13.70
2023-03-02T06:37:43.975Z,13.90
2023-03-02T06:40:12.035Z,13.57
2023-03-02T06:42:39.819Z,14.43
2023-03-02T06:45:07.711Z,14.85
2023-03-02T06:47:34.294Z,15.95
2023-03-02T06:50:01.175Z,15.27
2023-03-02T06:52:27.792Z,14.45
2023-03-02T06:54:55.019Z,15.77
2023-03-02T06:57:21.576Z,16.60
2023-03-02T06:59:48.044Z,15.30
2023-03-02T07:02:14.567Z,16.95
2023-03-02T07:04:42.469Z,16.05
2023-03-02T07:07:08.956Z,15.27
2023-03-02T07:09:35.778Z,16.13
2023-03-02T07:12:03.714Z,15.60
2023-03-02T07:14:30.154Z,16.48
2023-03-02T07:16:57.653Z,15.88
2023-03-02T07:19:24.731Z,15.20
2023-03-02T07:21:51.669Z,14.52
2023-03-02T07:24:18.185Z,13.55
2023-03-02T07:26:45.772Z,14.85
2023-03-02T07:29:12.630Z,15.73
2023-03-02T07:31:39.320Z,14.73
2023-03-02T07:34:05.843Z,15.07
2023-03-02T07:36:32.279Z,15.23
2023-03-02T07:39:01.850Z,14.93
2023-03-02T07:41:29.904Z,15.10
2023-03-02T07:43:56.518Z,14.25
2023-03-02T07:46:23.036Z,13.82
2023-03-02T07:48:49.866Z,13.48
2023-03-02T07:51:16.353Z,14.52
2023-03-02T07:53:42.887Z,15.88
2023-03-02T07:56:10.926Z,16.23
2023-03-02T07:58:40.293Z,16.20
2023-03-02T08:01:06.819Z,15.48
2023-03-02T08:03:33.359Z,14.73
2023-03-02T08:06:05.601Z,13.90
2023-03-02T08:08:32.028Z,12.18
2023-03-02T08:11:05.241Z,12.45
2023-03-02T08:13:31.791Z,10.15
2023-03-02T08:16:06.631Z,11.57
2023-03-02T08:18:34.069Z,11.02
2023-03-02T08:21:00.694Z,11.43
2023-03-02T08:23:27.654Z,11.77
2023-03-02T08:25:55.099Z,11.88
2023-03-02T08:28:22.967Z,11.23
2023-03-02T08:30:57.634Z,10.98
2023-03-02T08:33:24.919Z,10.90
2023-03-02T08:35:57.040Z,9.88
2023-03-02T08:38:24.362Z,9.63
2023-03-02T08:40:52.612Z,8.55
2023-03-02T08:43:20.086Z,8.88
2023-03-02T08:45:53.955Z,9.70
2023-03-02T08:48:23.012Z,9.52
2023-03-02T08:51:08.154Z,9.60
2023-03-02T08:53:39.280Z,8.20
2023-03-02T08:56:14.349Z,8.25
2023-03-02T08:58:40.804Z,8.68
2023-03-02T09:01:14.096Z,8.85
2023-03-02T09:03:40.684Z,9.85
2023-03-02T09:06:07.329Z,10.50
2023-03-02T09:08:33.816Z,10.23
2023-03-02T09:11:00.330Z,10.13
2023-03-02T09:13:26.913Z,11.23
2023-03-02T09:15:53.522Z,11.05
2023-03-02T09:18:20.012Z,11.13
2023-03-02T09:20:51.446Z,11.55
2023-03-02T09:23:18.762Z,11.98
2023-03-02T09:25:47.623Z,12.05
2023-03-02T09:28:15.264Z,11.55
2023-03-02T09:30:42.475Z,11.23
2023-03-02T09:33:08.988Z,11.65
2023-03-02T09:35:38.518Z,12.55
2023-03-02T09:38:05.068Z,12.07
2023-03-02T09:40:33.818Z,11.45
2023-03-02T09:43:22.054Z,11.07
2023-03-02T09:46:06.311Z,10.98
2023-03-02T09:48:55.474Z,11.20
2023-03-02T09:51:35.144Z,10.43
2023-03-02T09:54:15.420Z,11.00
2023-03-02T09:56:48.378Z,10.60
2023-03-02T09:59:20.568Z,10.57
2023-03-02T10:01:56.229Z,10.48
2023-03-02T10:04:26.701Z,10.25
2023-03-02T10:07:10.522Z,9.75
2023-03-02T10:09:37.714Z,8.77
2023-03-02T10:12:25.543Z,8.23
2023-03-02T10:14:54.749Z,8.80
2023-03-02T10:17:39.327Z,9.35
2023-03-02T10:20:17.863Z,10.32
2023-03-02T10:22:54.481Z,9.90
2023-03-02T10:25:33.930Z,9.25
2023-03-02T10:28:16.089Z,9.85
2023-03-02T10:30:44.161Z,8.63
2023-03-02T10:33:21.634Z,8.35
2023-03-02T10:35:50.640Z,8.38
2023-03-02T10:38:23.177Z,7.88
2023-03-02T10:41:00.407Z,8.57
2023-03-02T10:43:38.437Z,8.43
2023-03-02T10:46:07.984Z,7.78
2023-03-02T10:48:56.309Z,7.88
2023-03-02T10:51:37.876Z,8.13
2023-03-02T10:54:07.096Z,7.85
2023-03-02T10:56:34.522Z,9.07
2023-03-02T10:59:03.651Z,8.75
2023-03-02T11:01:31.725Z,8.73
2023-03-02T11:04:01.434Z,8.88
2023-03-02T11:06:29.694Z,9.85
2023-03-02T11:09:04.357Z,9.77
2023-03-02T11:11:31.949Z,9.95
2023-03-02T11:14:14.307Z,9.52
2023-03-02T11:16:41.032Z,10.65
2023-03-02T11:19:15.502Z,10.15
2023-03-02T11:21:58.137Z,10.75
2023-03-02T11:24:39.275Z,11.32
2023-03-02T11:27:26.771Z,14.27
2023-03-02T11:30:07.242Z,16.02
2023-03-02T11:32:48.311Z,18.75
2023-03-02T11:35:22.779Z,17.65
2023-03-02T11:37:52.392Z,17.58
2023-03-02T11:40:47.343Z,17.92
2023-03-02T11:43:14.304Z,18.58
2023-03-02T11:45:45.953Z,18.88
2023-03-02T11:48:22.743Z,21.42
2023-03-02T11:50:59.901Z,19.67
2023-03-02T11:53:55.543Z,18.08
2023-03-02T11:56:22.990Z,19.20
2023-03-02T11:58:59.380Z,19.35
2023-03-02T12:01:27.363Z,19.02
2023-03-02T12:03:55.968Z,19.30
2023-03-02T12:06:22.368Z,20.00
2023-03-02T12:08:52.289Z,19.55
2023-03-02T12:11:18.689Z,18.95
2023-03-02T12:13:54.623Z,19.88
2023-03-02T12:16:22.669Z,20.65
2023-03-02T12:18:51.631Z,19.50
2023-03-02T12:21:25.630Z,19.55
2023-03-02T12:23:52.098Z,21.73
2023-03-02T12:26:21.385Z,20.02
2023-03-02T12:29:11.527Z,19.60
2023-03-02T12:31:56.515Z,19.92
2023-03-02T12:34:36.541Z,20.60
2023-03-02T12:37:08.267Z,19.50
2023-03-02T12:40:11.668Z,20.00
2023-03-02T12:43:22.996Z,19.27
2023-03-02T12:46:29.579Z,18.13
2023-03-02T12:49:14.384Z,18.60
2023-03-02T12:51:50.895Z,18.98
2023-03-02T12:54:23.413Z,18.30
2023-03-02T12:57:01.338Z,19.40
2023-03-02T12:59:29.153Z,18.45
2023-03-02T13:02:13.758Z,18.35
2023-03-02T13:04:40.678Z,18.45
2023-03-02T13:07:15.310Z,19.10
2023-03-02T13:09:47.746Z,17.00
2023-03-02T13:12:21.127Z,18.05
2023-03-02T13:14:54.035Z,16.48
2023-03-02T13:17:31.452Z,16.92
2023-03-02T13:20:00.025Z,15.85
2023-03-02T13:22:28.262Z,16.05
2023-03-02T13:25:08.230Z,17.17
2023-03-02T13:27:35.047Z,17.33
2023-03-02T13:30:31.277Z,18.02
2023-03-02T13:33:06.250Z,17.45
2023-03-02T13:35:35.998Z,17.15
2023-03-02T13:38:23.612Z,17.13
2023-03-02T13:40:52.297Z,18.10
2023-03-02T13:43:34.646Z,15.57
2023-03-02T13:46:13.681Z,14.63
2023-03-02T13:48:40.244Z,14.38
2023-03-02T13:51:18.512Z,14.30
2023-03-02T13:53:58.289Z,12.32
2023-03-02T13:56:30.466Z,14.15
2023-03-02T13:58:57.360Z,14.25
2023-03-02T14:01:24.469Z,13.30
2023-03-02T14:03:50.963Z,13.75
2023-03-02T14:06:18.822Z,12.48
2023-03-02T14:08:46.689Z,12.57
2023-03-02T14:11:15.861Z,12.68
2023-03-02T14:13:49.952Z,11.60
2023-03-02T14:16:17.088Z,10.88
2023-03-02T14:18:52.272Z,9.95
2023-03-02T14:21:21.234Z,10.27
2023-03-02T14:23:48.801Z,10.73
2023-03-02T14:26:38.040Z,10.35
2023-03-02T14:29:16.926Z,9.00
2023-03-02T14:31:43.522Z,10.25
2023-03-02T14:34:13.664Z,9.95
2023-03-02T14:36:41.710Z,9.85
2023-03-02T14:39:20.325Z,9.13
2023-03-02T14:41:53.285Z,10.48
2023-03-02T14:44:21.067Z,10.35
2023-03-02T14:46:47.614Z,10.02
2023-03-02T14:49:14.266Z,11.43
2023-03-02T14:51:43.265Z,11.30
2023-03-02T14:54:15.446Z,12.45
2023-03-02T14:56:43.065Z,12.02
2023-03-02T14:59:13.700Z,12.77
2023-03-02T15:01:41.266Z,16.88
2023-03-02T15:04:07.762Z,13.68
2023-03-02T15:06:38.492Z,12.68
2023-03-02T15:09:05.600Z,14.95
2023-03-02T15:11:33.536Z,14.27
2023-03-02T15:14:00.270Z,12.43
2023-03-02T15:16:26.817Z,12.30
2023-03-02T15:18:53.907Z,12.07
2023-03-02T15:21:23.899Z,12.15
2023-03-02T15:23:50.989Z,12.32
2023-03-02T15:26:17.708Z,12.80
2023-03-02T15:28:47.440Z,12.07
2023-03-02T15:31:16.316Z,12.70
2023-03-02T15:33:45.137Z,11.90
2023-03-02T15:36:12.998Z,16.30
2023-03-02T15:38:39.736Z,19.08
2023-03-02T15:41:09.001Z,13.25
2023-03-02T15:43:35.655Z,15.23
2023-03-02T15:46:02.564Z,14.75
2023-03-02T15:48:30.179Z,13.80
2023-03-02T15:51:02.088Z,12.88
2023-03-02T15:53:30.113Z,12.57
2023-03-02T15:55:57.104Z,13.77
2023-03-02T15:58:24.383Z,13.55
2023-03-02T16:00:54.708Z,14.32
2023-03-02T16:03:23.233Z,14.90
2023-03-02T16:05:50.071Z,14.15
2023-03-02T16:08:16.752Z,14.50
2023-03-02T16:10:43.520Z,13.93
2023-03-02T16:13:13.176Z,12.60
2023-03-02T16:15:40.856Z,13.07
2023-03-02T16:18:08.812Z,12.50
2023-03-02T16:20:36.249Z,12.45
2023-03-02T16:23:06.052Z,12.15
2023-03-02T16:25:34.598Z,12.20
2023-03-02T16:28:03.246Z,16.30
2023-03-02T16:30:30.793Z,13.90
2023-03-02T16:32:59.081Z,13.60
2023-03-02T16:35:26.726Z,12.45
2023-03-02T16:37:53.250Z,12.02
2023-03-02T16:40:19.902Z,11.90
2023-03-02T16:42:46.745Z,11.45
2023-03-02T16:45:13.273Z,14.88
2023-03-02T16:47:39.919Z,11.15
2023-03-02T16:50:07.530Z,11.68
2023-03-02T16:52:34.138Z,11.52
2023-03-02T16:55:00.711Z,15.00
2023-03-02T16:57:27.368Z,16.50
2023-03-02T16:59:53.886Z,12.98
2023-03-02T17:02:20.370Z,12.88
2023-03-02T17:04:46.955Z,14.25
2023-03-02T17:07:13.726Z,14.15
2023-03-02T17:09:41.455Z,26.33
2023-03-02T17:12:08.598Z,13.27
2023-03-02T17:14:35.050Z,11.73
2023-03-02T17:17:04.113Z,12.65
2023-03-02T17:19:30.672Z,13.05
2023-03-02T17:21:59.750Z,12.82
2023-03-02T17:24:27.963Z,12.18
2023-03-02T17:26:55.070Z,12.98
2023-03-02T17:29:22.507Z,16.42
2023-03-02T17:31:49.240Z,12.50
2023-03-02T17:34:15.714Z,12.77
2023-03-02T17:36:42.371Z,11.05
2023-03-02T17:39:09.032Z,10.80
2023-03-02T17:41:37.536Z,11.32
2023-03-02T17:44:04.804Z,12.43
2023-03-02T17:46:32.679Z,11.77
2023-03-02T17:49:00.581Z,12.05
2023-03-02T17:51:29.008Z,11.23
2023-03-02T17:53:56.467Z,11.75
2023-03-02T17:56:26.597Z,11.57
2023-03-02T17:59:01.389Z,10.88
2023-03-02T18:01:29.041Z,12.23
2023-03-02T18:03:56.188Z,13.85
2023-03-02T18:06:22.771Z,11.50
2023-03-02T18:08:51.137Z,11.75
2023-03-02T18:11:20.762Z,9.90
2023-03-02T18:13:47.598Z,11.00
2023-03-02T18:16:14.767Z,14.30
2023-03-02T18:18:41.340Z,12.75
2023-03-02T18:21:07.896Z,11.93
2023-03-02T18:23:34.504Z,11.30
2023-03-02T18:26:01.032Z,12.13
2023-03-02T18:28:27.765Z,12.98
2023-03-02T18:30:54.378Z,11.88
2023-03-02T18:33:20.970Z,11.68
2023-03-02T18:35:47.507Z,11.02
2023-03-02T18:38:13.917Z,10.70
2023-03-02T18:40:40.559Z,10.88
2023-03-02T18:43:07.365Z,10.40
2023-03-02T18:45:33.995Z,11.00
2023-03-02T18:48:00.880Z,10.52
2023-03-02T18:50:28.753Z,11.57
2023-03-02T18:52:55.371Z,11.38
2023-03-02T18:55:24.411Z,11.40
2023-03-02T18:57:53.872Z,10.25
2023-03-02T19:00:26.676Z,11.40
2023-03-02T19:02:54.543Z,10.65
2023-03-02T19:05:21.407Z,10.98
2023-03-02T19:07:49.912Z,10.95
2023-03-02T19:10:17.010Z,11.07
2023-03-02T19:12:43.562Z,10.27
2023-03-02T19:15:13.199Z,16.40
2023-03-02T19:17:42.513Z,24.52
2023-03-02T19:20:14.370Z,10.50
2023-03-02T19:22:40.941Z,14.50
2023-03-02T19:25:08.783Z,14.77
2023-03-02T19:27:35.411Z,11.30
2023-03-02T19:30:02.059Z,10.05
2023-03-02T19:32:28.661Z,14.38
2023-03-02T19:34:56.536Z,10.85
2023-03-02T19:37:23.015Z,11.35
2023-03-02T19:39:49.711Z,11.00
2023-03-02T19:42:16.298Z,9.75
2023-03-02T19:44:42.754Z,9.05
2023-03-02T19:47:09.369Z,8.88
2023-03-02T19:49:37.756Z,8.60
2023-03-02T19:52:05.154Z,8.00
2023-03-02T19:54:31.711Z,8.32
2023-03-02T19:56:58.274Z,8.88
2023-03-02T19:59:26.893Z,10.15
2023-03-02T20:01:55.059Z,8.50
2023-03-02T20:04:21.674Z,9.98
2023-03-02T20:06:48.387Z,8.82
2023-03-02T20:09:20.240Z,9.40
2023-03-02T20:11:50.170Z,9.07
2023-03-02T20:14:31.276Z,8.73
2023-03-02T20:16:59.625Z,8.70
2023-03-02T20:19:27.247Z,9.57
2023-03-02T20:21:54.193Z,8.32
2023-03-02T20:24:20.941Z,8.68
2023-03-02T20:26:50.700Z,9.02
2023-03-02T20:29:17.275Z,8.90
2023-03-02T20:31:44.876Z,9.98
2023-03-02T20:34:15.903Z,9.60
2023-03-02T20:36:45.066Z,9.25
2023-03-02T20:39:24.864Z,9.02
2023-03-02T20:41:52.138Z,8.90
2023-03-02T20:44:20.322Z,8.57
2023-03-02T20:46:51.348Z,8.35
2023-03-02T20:49:18.358Z,8.50
2023-03-02T20:51:52.617Z,9.00
2023-03-02T20:54:27.013Z,9.30
2023-03-02T20:56:54.121Z,9.02
2023-03-02T20:59:21.264Z,8.98
2023-03-02T21:01:47.919Z,8.05
2023-03-02T21:04:14.454Z,8.82
2023-03-02T21:06:41.203Z,8.43
2023-03-02T21:09:09.314Z,7.53
2023-03-02T21:11:37.205Z,7.72
2023-03-02T21:14:04.424Z,7.35
2023-03-02T21:16:35.994Z,8.32
2023-03-02T21:19:04.808Z,7.57
2023-03-02T21:21:41.131Z,7.80
2023-03-02T21:24:16.586Z,10.85
2023-03-02T21:26:47.011Z,7.88
2023-03-02T21:29:13.792Z,8.02
2023-03-02T21:31:42.513Z,7.80
2023-03-02T21:34:10.112Z,7.72
2023-03-02T21:36:37.261Z,7.78
2023-03-02T21:39:05.337Z,7.00
2023-03-02T21:41:31.785Z,7.18
2023-03-02T21:43:58.344Z,7.80
2023-03-02T21:46:27.758Z,7.68
2023-03-02T21:48:54.449Z,7.22
2023-03-02T21:51:21.115Z,8.02
2023-03-02T21:53:47.782Z,8.35
2023-03-02T21:56:20.646Z,7.40
2023-03-02T21:58:52.839Z,7.55
2023-03-02T22:01:20.847Z,7.63
2023-03-02T22:03:47.661Z,7.63
2023-03-02T22:06:20.204Z,7.75
2023-03-02T22:08:46.936Z,7.75
2023-03-02T22:11:21.635Z,7.80
2023-03-02T22:13:55.178Z,6.93
2023-03-02T22:16:27.158Z,7.80
2023-03-02T22:18:57.049Z,7.10
2023-03-02T22:21:30.850Z,7.25
2023-03-02T22:24:09.473Z,7.93
2023-03-02T22:26:42.038Z,6.53
2023-03-02T22:29:17.344Z,6.47
2023-03-02T22:31:49.517Z,6.85
2023-03-02T22:34:20.826Z,6.18
2023-03-02T22:36:47.439Z,6.70
2023-03-02T22:39:18.321Z,7.47
2023-03-02T22:41:45.055Z,6.20
2023-03-02T22:44:13.655Z,6.07
2023-03-02T22:46:41.086Z,5.82
2023-03-02T22:49:16.469Z,5.88
2023-03-02T22:51:44.919Z,5.65
2023-03-02T22:54:21.561Z,6.28
2023-03-02T22:56:51.685Z,6.47
2023-03-02T22:59:28.313Z,5.93
2023-03-02T23:02:02.400Z,5.95
2023-03-02T23:04:36.514Z,5.72
2023-03-02T23:07:18.213Z,5.80
2023-03-02T23:09:45.198Z,5.95
2023-03-02T23:12:21.240Z,5.75
2023-03-02T23:14:51.141Z,6.45
2023-03-02T23:17:22.643Z,6.18
2023-03-02T23:19:51.234Z,5.72
2023-03-02T23:22:18.052Z,6.07
2023-03-02T23:24:44.596Z,5.75
2023-03-02T23:27:11.480Z,5.70
2023-03-02T23:29:38.063Z,5.90
2023-03-02T23:32:04.794Z,6.13
2023-03-02T23:34:31.446Z,6.32
2023-03-02T23:36:59.021Z,5.35
2023-03-02T23:39:26.224Z,5.70
2023-03-02T23:41:53.014Z,5.72
2023-03-02T23:44:20.304Z,5.90
2023-03-02T23:46:47.755Z,6.13
2023-03-02T23:49:14.376Z,7.05
2023-03-02T23:51:40.932Z,6.47
2023-03-02T23:54:07.951Z,6.38
2023-03-02T23:56:35.146Z,6.15
2023-03-02T23:59:02.466Z,6.68
